Kerens, West Virginia
Current Conditions -  °F | °C
As of 5:51 PM on Saturday 25 Oct 2014 (Local Time) from KEKN Reporting Station
Overcast Overcast  
Wind Chill: 62°   Ceiling: 3600
Heat Index: 62°   Visibility: 10mi
Dew Point: 44°   Wind: 6mph
Humidity: 52%   Direction: 240°WSW
Pressure: 29.89"   Gusts: NA
Location:  39.01°N, 79.81°W
Report Text: KEKN 252151Z AUTO 24005KT 10SM OVC036 17/07 A2989 RMK AO2 SLP130 T01670067 TSNO
Loading
Personal Weather Stations






























Interactive Weather Map
Tropical Storm Tracking
New forecast layout! Learn more

10-Day Weather Forecast

Advertisements
Track Severe Weather on mobile